»·PEaware :: AAL1465 KTPA-KMIA

AAL1465 :: KTPA-KMIA

FLIGHT INFORMATION

Flight Status: Arrived
Operator:
American Airlines
More flights by this operator :: More flights under this callsign
Pilot: Drew L. (13237)
Aircraft: BOEING 737-800
(B738)
More flights by this aircraft type
Origin: KTPA Tampa Intl
United States
Destination: KMIA Miami Intl
United States
More flights between these airports :: More routes between these airports
Route: GANDY7 SABEE CYY DEEDS SSCOT3
File this flight plan on PilotEdge
Remarks: PBN / A1B1C1D1S1S2 NAV / RNVD1E2A1 DAT / V DOF / 171007 REG / N951AA EET / KZMA0000 SEL / ALCL RMK / NRP SIMBRIEF
Altitude:
(Current/Filed)
25,000ft
Speed:
(Current/Filed)
430kts
Departed: 07-Oct-17 06:50 AM
Arrived: 07-Oct-17 07:29 AM
Distance/Time
Traveled:
178nm/0:39
Distance/Time
To Go:
Arrived

Flight Plot

Page will automatically refresh every two minutes.

Flight plan parsing failed; only flown route is shown


Map Options




Map Legend


Flown Route
Filed Route
Departure Airport
Arrival Airport
Navaid (VOR, NDB)
Fix

Horizontal Profiles

Position Reports

Time Latitude Longitude Heading Altitude Ground
Speed
07-Oct-17 06:33 27.974463 -82.532017 4 33ft 0kts
07-Oct-17 06:34 27.974463 -82.532017 4 33ft 0kts
07-Oct-17 06:35 27.974463 -82.532017 4 33ft 0kts
07-Oct-17 06:36 27.974463 -82.532017 4 33ft 0kts
07-Oct-17 06:37 27.974463 -82.532017 4 33ft 0kts
07-Oct-17 06:38 27.974463 -82.532017 4 33ft 0kts
07-Oct-17 06:39 27.974463 -82.532017 4 33ft 0kts
07-Oct-17 06:40 27.974463 -82.532017 4 33ft 0kts
07-Oct-17 06:41 27.974463 -82.532017 4 33ft 0kts
07-Oct-17 06:42 27.974463 -82.532017 4 33ft 0kts
07-Oct-17 06:43 27.974399 -82.532021 3 33ft 2kts
07-Oct-17 06:44 27.973854 -82.532061 34 33ft 0kts
07-Oct-17 06:45 27.973774 -82.532161 91 33ft 0kts
07-Oct-17 06:46 27.973774 -82.532161 91 33ft 0kts
07-Oct-17 06:47 27.973776 -82.532129 85 33ft 0kts
07-Oct-17 06:48 27.973776 -82.532129 85 33ft 0kts
07-Oct-17 06:49 27.973934 -82.529985 28 33ft 11kts
07-Oct-17 06:50 27.978821 -82.529735 2 33ft 23kts
07-Oct-17 06:51 27.984331 -82.529544 2 33ft 18kts
07-Oct-17 06:52 27.986806 -82.529383 32 33ft 0kts
07-Oct-17 06:53 27.986514 -82.528238 181 33ft 18kts
07-Oct-17 06:54 27.950025 -82.528828 177 1789ft 170kts
07-Oct-17 06:55 27.900579 -82.534917 190 4797ft 209kts
07-Oct-17 06:56 27.838168 -82.553226 192 7910ft 265kts
07-Oct-17 06:57 27.764070 -82.568133 167 11821ft 280kts
07-Oct-17 06:58 27.685076 -82.534107 158 13708ft 324kts
07-Oct-17 06:59 27.606518 -82.497412 157 16305ft 342kts
07-Oct-17 07:00 27.520192 -82.450397 151 19756ft 356kts
07-Oct-17 07:01 27.430649 -82.396727 150 22588ft 379kts
07-Oct-17 07:02 27.348077 -82.347022 150 24833ft 395kts
07-Oct-17 07:03 27.255994 -82.291820 151 25018ft 423kts
07-Oct-17 07:04 27.150690 -82.228961 151 24997ft 431kts
07-Oct-17 07:05 27.043281 -82.171766 157 25026ft 432kts
07-Oct-17 07:06 26.932217 -82.122096 157 25021ft 432kts
07-Oct-17 07:07 26.849107 -82.085134 157 25021ft 432kts
07-Oct-17 07:08 26.737828 -82.035806 157 25022ft 432kts
07-Oct-17 07:09 26.626597 -81.986546 157 25021ft 432kts
07-Oct-17 07:10 26.524742 -81.920770 130 24991ft 428kts
07-Oct-17 07:11 26.442550 -81.825329 133 24140ft 425kts
07-Oct-17 07:12 26.365033 -81.728177 129 22718ft 415kts
07-Oct-17 07:13 26.291359 -81.632260 128 21306ft 404kts
07-Oct-17 07:14 26.245779 -81.520853 110 19730ft 386kts
07-Oct-17 07:15 26.211263 -81.414347 110 17805ft 356kts
07-Oct-17 07:16 26.177775 -81.311860 111 15826ft 349kts
07-Oct-17 07:17 26.145162 -81.212452 111 13814ft 338kts
07-Oct-17 07:18 26.113744 -81.116880 112 11908ft 319kts
07-Oct-17 07:19 26.084282 -81.027571 112 10318ft 293kts
07-Oct-17 07:20 26.057261 -80.945985 112 9203ft 280kts
07-Oct-17 07:21 26.030523 -80.865801 112 8023ft 278kts
07-Oct-17 07:22 26.003856 -80.786655 111 6482ft 268kts
07-Oct-17 07:23 25.979400 -80.713106 111 5096ft 241kts
07-Oct-17 07:24 25.957458 -80.647257 111 4120ft 218kts
07-Oct-17 07:25 25.937056 -80.586259 112 3644ft 193kts
07-Oct-17 07:26 25.915912 -80.531044 120 3382ft 187kts
07-Oct-17 07:27 25.894155 -80.488047 120 3092ft 183kts
07-Oct-17 07:28 25.873763 -80.448087 121 2805ft 145kts
07-Oct-17 07:29 25.854531 -80.410445 121 2234ft 142kts
07-Oct-17 07:30 25.835395 -80.373041 120 1470ft 139kts
07-Oct-17 07:31 25.817015 -80.337060 121 745ft 139kts
07-Oct-17 07:32 25.798310 -80.300336 120 26ft 133kts
07-Oct-17 07:33 25.791807 -80.283953 12 14ft 16kts
07-Oct-17 07:34 25.794099 -80.285665 357 14ft 14kts
07-Oct-17 07:35 25.796754 -80.284448 9 14ft 5kts
07-Oct-17 07:36 25.797237 -80.284454 356 14ft 0kts

Navigation Log

Ident Type
Flight plan parsing failed, navigation log unavailable